sensor_id;sensor_type;location;lat;lon;timestamp;P1;durP1;ratioP1;P2;durP2;ratioP2
4508;SDS011;2267;48.816;9.230;2023-05-29T00:02:11;8.13;;;7.30;;
4508;SDS011;2267;48.816;9.230;2023-05-29T00:04:39;10.03;;;8.50;;
4508;SDS011;2267;48.816;9.230;2023-05-29T00:07:06;8.70;;;6.83;;
4508;SDS011;2267;48.816;9.230;2023-05-29T00:09:33;7.73;;;6.87;;
4508;SDS011;2267;48.816;9.230;2023-05-29T00:12:00;8.90;;;8.00;;
4508;SDS011;2267;48.816;9.230;2023-05-29T00:14:27;8.80;;;7.90;;
4508;SDS011;2267;48.816;9.230;2023-05-29T00:16:54;9.63;;;7.60;;
4508;SDS011;2267;48.816;9.230;2023-05-29T00:19:21;8.17;;;7.17;;
4508;SDS011;2267;48.816;9.230;2023-05-29T00:21:48;9.03;;;7.47;;
4508;SDS011;2267;48.816;9.230;2023-05-29T00:24:15;8.87;;;7.97;;
4508;SDS011;2267;48.816;9.230;2023-05-29T00:26:44;10.07;;;7.90;;
4508;SDS011;2267;48.816;9.230;2023-05-29T00:29:11;8.93;;;8.03;;
4508;SDS011;2267;48.816;9.230;2023-05-29T00:31:37;9.03;;;8.13;;
4508;SDS011;2267;48.816;9.230;2023-05-29T00:34:07;8.73;;;7.43;;
4508;SDS011;2267;48.816;9.230;2023-05-29T00:36:39;9.50;;;8.67;;
4508;SDS011;2267;48.816;9.230;2023-05-29T00:39:06;8.63;;;7.67;;
4508;SDS011;2267;48.816;9.230;2023-05-29T00:41:33;8.50;;;7.80;;
4508;SDS011;2267;48.816;9.230;2023-05-29T00:44:02;9.63;;;8.40;;
4508;SDS011;2267;48.816;9.230;2023-05-29T00:46:28;8.47;;;7.67;;
4508;SDS011;2267;48.816;9.230;2023-05-29T00:48:58;9.23;;;7.83;;
4508;SDS011;2267;48.816;9.230;2023-05-29T00:51:26;8.93;;;7.83;;
4508;SDS011;2267;48.816;9.230;2023-05-29T00:53:54;9.63;;;8.67;;
4508;SDS011;2267;48.816;9.230;2023-05-29T00:56:23;9.07;;;8.10;;
4508;SDS011;2267;48.816;9.230;2023-05-29T00:58:51;10.70;;;8.00;;
4508;SDS011;2267;48.816;9.230;2023-05-29T01:01:18;9.43;;;8.47;;
4508;SDS011;2267;48.816;9.230;2023-05-29T01:03:47;9.93;;;8.80;;
4508;SDS011;2267;48.816;9.230;2023-05-29T01:06:15;9.53;;;8.60;;
4508;SDS011;2267;48.816;9.230;2023-05-29T01:08:42;9.07;;;7.80;;
4508;SDS011;2267;48.816;9.230;2023-05-29T01:14:22;9.37;;;8.30;;
4508;SDS011;2267;48.816;9.230;2023-05-29T01:16:57;8.00;;;6.87;;
4508;SDS011;2267;48.816;9.230;2023-05-29T01:24:50;8.07;;;7.00;;
4508;SDS011;2267;48.816;9.230;2023-05-29T01:27:46;8.20;;;7.10;;
4508;SDS011;2267;48.816;9.230;2023-05-29T01:30:15;6.90;;;5.97;;
4508;SDS011;2267;48.816;9.230;2023-05-29T01:32:43;7.90;;;7.10;;
4508;SDS011;2267;48.816;9.230;2023-05-29T01:35:10;7.10;;;6.50;;
4508;SDS011;2267;48.816;9.230;2023-05-29T01:37:39;7.87;;;7.07;;
4508;SDS011;2267;48.816;9.230;2023-05-29T01:40:08;9.23;;;6.70;;
4508;SDS011;2267;48.816;9.230;2023-05-29T01:42:35;8.03;;;6.80;;
4508;SDS011;2267;48.816;9.230;2023-05-29T01:45:02;8.53;;;7.13;;
4508;SDS011;2267;48.816;9.230;2023-05-29T01:47:31;6.93;;;6.30;;
4508;SDS011;2267;48.816;9.230;2023-05-29T01:49:59;9.60;;;7.30;;
4508;SDS011;2267;48.816;9.230;2023-05-29T01:52:26;7.57;;;6.60;;
4508;SDS011;2267;48.816;9.230;2023-05-29T01:54:53;7.37;;;6.67;;
4508;SDS011;2267;48.816;9.230;2023-05-29T01:57:20;6.73;;;6.13;;
4508;SDS011;2267;48.816;9.230;2023-05-29T01:59:47;7.83;;;7.13;;
4508;SDS011;2267;48.816;9.230;2023-05-29T02:02:15;7.13;;;6.43;;
4508;SDS011;2267;48.816;9.230;2023-05-29T02:04:42;7.53;;;6.80;;
4508;SDS011;2267;48.816;9.230;2023-05-29T02:07:09;7.60;;;6.90;;
4508;SDS011;2267;48.816;9.230;2023-05-29T02:09:38;10.20;;;7.00;;
4508;SDS011;2267;48.816;9.230;2023-05-29T02:12:05;9.00;;;7.30;;
4508;SDS011;2267;48.816;9.230;2023-05-29T02:14:33;9.13;;;6.80;;
4508;SDS011;2267;48.816;9.230;2023-05-29T02:17:00;7.90;;;7.03;;
4508;SDS011;2267;48.816;9.230;2023-05-29T02:19:27;7.33;;;6.60;;
4508;SDS011;2267;48.816;9.230;2023-05-29T02:21:54;8.37;;;6.53;;
4508;SDS011;2267;48.816;9.230;2023-05-29T02:24:21;7.43;;;6.60;;
4508;SDS011;2267;48.816;9.230;2023-05-29T02:26:48;7.77;;;6.93;;
4508;SDS011;2267;48.816;9.230;2023-05-29T02:29:17;6.63;;;6.03;;
4508;SDS011;2267;48.816;9.230;2023-05-29T02:31:43;8.40;;;7.03;;
4508;SDS011;2267;48.816;9.230;2023-05-29T02:34:10;8.07;;;7.10;;
4508;SDS011;2267;48.816;9.230;2023-05-29T02:36:37;7.50;;;6.80;;
4508;SDS011;2267;48.816;9.230;2023-05-29T02:39:04;8.20;;;7.30;;
4508;SDS011;2267;48.816;9.230;2023-05-29T02:41:32;9.23;;;7.33;;
4508;SDS011;2267;48.816;9.230;2023-05-29T02:43:58;11.33;;;8.57;;
4508;SDS011;2267;48.816;9.230;2023-05-29T02:46:25;7.87;;;7.10;;
4508;SDS011;2267;48.816;9.230;2023-05-29T02:48:52;8.70;;;7.07;;
4508;SDS011;2267;48.816;9.230;2023-05-29T02:51:19;9.60;;;7.10;;
4508;SDS011;2267;48.816;9.230;2023-05-29T02:53:46;12.20;;;7.03;;
4508;SDS011;2267;48.816;9.230;2023-05-29T02:56:14;10.33;;;7.87;;
4508;SDS011;2267;48.816;9.230;2023-05-29T02:58:42;11.37;;;8.90;;
4508;SDS011;2267;48.816;9.230;2023-05-29T03:01:09;14.60;;;7.77;;
4508;SDS011;2267;48.816;9.230;2023-05-29T03:03:36;13.90;;;8.47;;
4508;SDS011;2267;48.816;9.230;2023-05-29T03:06:03;8.27;;;7.10;;
4508;SDS011;2267;48.816;9.230;2023-05-29T03:08:30;12.57;;;7.70;;
4508;SDS011;2267;48.816;9.230;2023-05-29T03:10:57;12.67;;;8.70;;
4508;SDS011;2267;48.816;9.230;2023-05-29T03:13:24;10.93;;;7.50;;
4508;SDS011;2267;48.816;9.230;2023-05-29T03:15:51;11.50;;;6.70;;
4508;SDS011;2267;48.816;9.230;2023-05-29T03:18:23;9.67;;;8.67;;
4508;SDS011;2267;48.816;9.230;2023-05-29T03:20:49;11.10;;;8.10;;
4508;SDS011;2267;48.816;9.230;2023-05-29T03:23:16;11.13;;;7.40;;
4508;SDS011;2267;48.816;9.230;2023-05-29T03:25:43;9.93;;;8.23;;
4508;SDS011;2267;48.816;9.230;2023-05-29T03:28:10;16.70;;;8.43;;
4508;SDS011;2267;48.816;9.230;2023-05-29T03:30:37;8.73;;;6.87;;
4508;SDS011;2267;48.816;9.230;2023-05-29T03:33:04;9.00;;;7.20;;
4508;SDS011;2267;48.816;9.230;2023-05-29T03:35:32;8.30;;;7.47;;
4508;SDS011;2267;48.816;9.230;2023-05-29T03:37:59;12.20;;;7.73;;
4508;SDS011;2267;48.816;9.230;2023-05-29T03:40:26;9.60;;;7.53;;
4508;SDS011;2267;48.816;9.230;2023-05-29T03:42:53;7.87;;;7.07;;
4508;SDS011;2267;48.816;9.230;2023-05-29T03:45:20;8.00;;;7.20;;
4508;SDS011;2267;48.816;9.230;2023-05-29T03:47:46;7.40;;;6.70;;
4508;SDS011;2267;48.816;9.230;2023-05-29T03:50:13;8.00;;;6.43;;
4508;SDS011;2267;48.816;9.230;2023-05-29T03:52:41;7.63;;;6.90;;
4508;SDS011;2267;48.816;9.230;2023-05-29T03:55:09;8.73;;;7.93;;
4508;SDS011;2267;48.816;9.230;2023-05-29T03:57:41;11.00;;;7.50;;
4508;SDS011;2267;48.816;9.230;2023-05-29T04:00:10;8.57;;;7.50;;
4508;SDS011;2267;48.816;9.230;2023-05-29T04:02:38;7.20;;;6.50;;
4508;SDS011;2267;48.816;9.230;2023-05-29T04:05:05;7.97;;;6.43;;
4508;SDS011;2267;48.816;9.230;2023-05-29T04:07:33;8.70;;;7.80;;
4508;SDS011;2267;48.816;9.230;2023-05-29T04:09:59;8.00;;;6.80;;
4508;SDS011;2267;48.816;9.230;2023-05-29T04:12:27;8.47;;;7.50;;
4508;SDS011;2267;48.816;9.230;2023-05-29T04:14:54;8.63;;;7.57;;
4508;SDS011;2267;48.816;9.230;2023-05-29T04:17:20;8.47;;;7.67;;
4508;SDS011;2267;48.816;9.230;2023-05-29T04:19:47;8.40;;;7.60;;
4508;SDS011;2267;48.816;9.230;2023-05-29T04:22:14;9.80;;;8.80;;
4508;SDS011;2267;48.816;9.230;2023-05-29T04:24:41;8.43;;;7.63;;
4508;SDS011;2267;48.816;9.230;2023-05-29T04:27:08;9.57;;;7.50;;
4508;SDS011;2267;48.816;9.230;2023-05-29T04:29:39;9.13;;;7.60;;
4508;SDS011;2267;48.816;9.230;2023-05-29T04:32:09;10.30;;;7.80;;
4508;SDS011;2267;48.816;9.230;2023-05-29T04:34:37;7.53;;;6.73;;
4508;SDS011;2267;48.816;9.230;2023-05-29T04:37:10;9.10;;;8.27;;
4508;SDS011;2267;48.816;9.230;2023-05-29T04:39:37;8.83;;;7.70;;
4508;SDS011;2267;48.816;9.230;2023-05-29T04:42:03;9.03;;;8.10;;
4508;SDS011;2267;48.816;9.230;2023-05-29T04:44:31;9.20;;;7.57;;
4508;SDS011;2267;48.816;9.230;2023-05-29T04:46:59;9.03;;;8.17;;
4508;SDS011;2267;48.816;9.230;2023-05-29T04:49:29;9.00;;;8.13;;
4508;SDS011;2267;48.816;9.230;2023-05-29T04:51:56;7.30;;;6.60;;
4508;SDS011;2267;48.816;9.230;2023-05-29T04:54:26;8.77;;;7.87;;
4508;SDS011;2267;48.816;9.230;2023-05-29T04:56:53;8.13;;;7.27;;
4508;SDS011;2267;48.816;9.230;2023-05-29T04:59:21;9.97;;;8.33;;
4508;SDS011;2267;48.816;9.230;2023-05-29T05:01:47;10.10;;;7.27;;
4508;SDS011;2267;48.816;9.230;2023-05-29T05:04:15;9.93;;;8.40;;
4508;SDS011;2267;48.816;9.230;2023-05-29T05:06:42;7.97;;;7.20;;
4508;SDS011;2267;48.816;9.230;2023-05-29T05:09:10;9.23;;;8.03;;
4508;SDS011;2267;48.816;9.230;2023-05-29T05:11:37;9.30;;;8.10;;
4508;SDS011;2267;48.816;9.230;2023-05-29T05:14:04;9.23;;;8.10;;
4508;SDS011;2267;48.816;9.230;2023-05-29T05:16:30;9.73;;;8.73;;
4508;SDS011;2267;48.816;9.230;2023-05-29T05:18:59;8.80;;;7.60;;
4508;SDS011;2267;48.816;9.230;2023-05-29T05:21:26;7.47;;;6.87;;
4508;SDS011;2267;48.816;9.230;2023-05-29T05:23:53;12.53;;;8.03;;
4508;SDS011;2267;48.816;9.230;2023-05-29T05:26:24;8.87;;;7.97;;
4508;SDS011;2267;48.816;9.230;2023-05-29T05:28:53;8.43;;;7.63;;
4508;SDS011;2267;48.816;9.230;2023-05-29T05:31:19;10.30;;;8.10;;
4508;SDS011;2267;48.816;9.230;2023-05-29T05:33:47;7.10;;;6.50;;
4508;SDS011;2267;48.816;9.230;2023-05-29T05:36:13;8.00;;;7.17;;
4508;SDS011;2267;48.816;9.230;2023-05-29T05:38:40;9.80;;;7.23;;
4508;SDS011;2267;48.816;9.230;2023-05-29T05:41:07;8.30;;;7.43;;
4508;SDS011;2267;48.816;9.230;2023-05-29T05:43:34;7.40;;;6.70;;
4508;SDS011;2267;48.816;9.230;2023-05-29T05:46:01;7.23;;;6.53;;
4508;SDS011;2267;48.816;9.230;2023-05-29T05:48:28;8.33;;;7.17;;
4508;SDS011;2267;48.816;9.230;2023-05-29T05:50:55;7.63;;;6.83;;
4508;SDS011;2267;48.816;9.230;2023-05-29T05:53:22;9.07;;;7.30;;
4508;SDS011;2267;48.816;9.230;2023-05-29T05:55:49;7.80;;;6.90;;
4508;SDS011;2267;48.816;9.230;2023-05-29T05:58:16;7.90;;;7.00;;
4508;SDS011;2267;48.816;9.230;2023-05-29T06:00:42;8.03;;;6.70;;
4508;SDS011;2267;48.816;9.230;2023-05-29T06:03:09;9.40;;;6.70;;
4508;SDS011;2267;48.816;9.230;2023-05-29T06:05:37;7.90;;;7.10;;
4508;SDS011;2267;48.816;9.230;2023-05-29T06:08:06;8.33;;;6.50;;
4508;SDS011;2267;48.816;9.230;2023-05-29T06:10:34;8.73;;;7.67;;
4508;SDS011;2267;48.816;9.230;2023-05-29T06:13:02;7.53;;;6.60;;
4508;SDS011;2267;48.816;9.230;2023-05-29T06:15:29;7.00;;;6.30;;
4508;SDS011;2267;48.816;9.230;2023-05-29T06:17:56;9.47;;;6.63;;
4508;SDS011;2267;48.816;9.230;2023-05-29T06:20:23;7.30;;;6.57;;
4508;SDS011;2267;48.816;9.230;2023-05-29T06:22:50;8.10;;;6.20;;
4508;SDS011;2267;48.816;9.230;2023-05-29T06:25:16;8.40;;;6.90;;
4508;SDS011;2267;48.816;9.230;2023-05-29T06:27:46;6.80;;;6.20;;
4508;SDS011;2267;48.816;9.230;2023-05-29T06:30:13;7.53;;;6.30;;
4508;SDS011;2267;48.816;9.230;2023-05-29T06:32:41;10.13;;;8.23;;
4508;SDS011;2267;48.816;9.230;2023-05-29T06:35:08;8.10;;;6.77;;
4508;SDS011;2267;48.816;9.230;2023-05-29T06:37:35;7.50;;;6.70;;
4508;SDS011;2267;48.816;9.230;2023-05-29T06:40:02;6.67;;;6.07;;
4508;SDS011;2267;48.816;9.230;2023-05-29T06:42:30;9.33;;;7.37;;
4508;SDS011;2267;48.816;9.230;2023-05-29T06:44:57;8.20;;;6.87;;
4508;SDS011;2267;48.816;9.230;2023-05-29T06:47:24;7.00;;;6.30;;
4508;SDS011;2267;48.816;9.230;2023-05-29T06:49:51;9.07;;;7.07;;
4508;SDS011;2267;48.816;9.230;2023-05-29T06:52:18;6.73;;;6.13;;
4508;SDS011;2267;48.816;9.230;2023-05-29T06:54:44;8.83;;;7.30;;
4508;SDS011;2267;48.816;9.230;2023-05-29T06:57:11;7.10;;;5.90;;
4508;SDS011;2267;48.816;9.230;2023-05-29T06:59:38;8.50;;;6.03;;
4508;SDS011;2267;48.816;9.230;2023-05-29T07:02:05;7.67;;;5.47;;
4508;SDS011;2267;48.816;9.230;2023-05-29T07:04:32;6.67;;;5.47;;
4508;SDS011;2267;48.816;9.230;2023-05-29T07:06:59;6.40;;;5.63;;
4508;SDS011;2267;48.816;9.230;2023-05-29T07:09:26;6.73;;;6.13;;
4508;SDS011;2267;48.816;9.230;2023-05-29T07:11:54;6.63;;;6.03;;
4508;SDS011;2267;48.816;9.230;2023-05-29T07:14:21;7.27;;;6.37;;
4508;SDS011;2267;48.816;9.230;2023-05-29T07:16:47;7.27;;;6.17;;
4508;SDS011;2267;48.816;9.230;2023-05-29T07:19:14;7.53;;;5.53;;
4508;SDS011;2267;48.816;9.230;2023-05-29T07:21:47;5.90;;;5.40;;
4508;SDS011;2267;48.816;9.230;2023-05-29T07:24:14;6.20;;;5.60;;
4508;SDS011;2267;48.816;9.230;2023-05-29T07:26:41;7.10;;;5.57;;
4508;SDS011;2267;48.816;9.230;2023-05-29T07:29:08;8.87;;;6.80;;
4508;SDS011;2267;48.816;9.230;2023-05-29T07:31:36;5.70;;;5.10;;
4508;SDS011;2267;48.816;9.230;2023-05-29T07:34:04;6.10;;;5.50;;
4508;SDS011;2267;48.816;9.230;2023-05-29T07:36:31;6.47;;;4.60;;
4508;SDS011;2267;48.816;9.230;2023-05-29T07:38:58;4.63;;;4.17;;
4508;SDS011;2267;48.816;9.230;2023-05-29T07:41:25;13.23;;;6.03;;
4508;SDS011;2267;48.816;9.230;2023-05-29T07:43:54;7.33;;;5.90;;
4508;SDS011;2267;48.816;9.230;2023-05-29T07:46:22;6.20;;;5.20;;
4508;SDS011;2267;48.816;9.230;2023-05-29T07:48:49;8.60;;;5.80;;
4508;SDS011;2267;48.816;9.230;2023-05-29T07:51:16;7.40;;;5.67;;
4508;SDS011;2267;48.816;9.230;2023-05-29T07:53:44;6.43;;;5.83;;
4508;SDS011;2267;48.816;9.230;2023-05-29T07:56:12;5.83;;;5.27;;
4508;SDS011;2267;48.816;9.230;2023-05-29T07:58:39;6.57;;;5.60;;
4508;SDS011;2267;48.816;9.230;2023-05-29T08:01:07;5.47;;;4.83;;
4508;SDS011;2267;48.816;9.230;2023-05-29T08:03:34;6.73;;;4.90;;
4508;SDS011;2267;48.816;9.230;2023-05-29T08:06:01;5.80;;;5.30;;
4508;SDS011;2267;48.816;9.230;2023-05-29T08:08:29;6.30;;;5.67;;
4508;SDS011;2267;48.816;9.230;2023-05-29T08:10:56;6.07;;;5.47;;
4508;SDS011;2267;48.816;9.230;2023-05-29T08:13:23;7.83;;;5.70;;
4508;SDS011;2267;48.816;9.230;2023-05-29T08:15:50;6.10;;;5.00;;
4508;SDS011;2267;48.816;9.230;2023-05-29T08:18:17;7.03;;;5.67;;
4508;SDS011;2267;48.816;9.230;2023-05-29T08:20:44;6.47;;;5.27;;
4508;SDS011;2267;48.816;9.230;2023-05-29T08:23:11;6.13;;;5.20;;
4508;SDS011;2267;48.816;9.230;2023-05-29T08:25:38;6.30;;;5.70;;
4508;SDS011;2267;48.816;9.230;2023-05-29T08:28:04;10.23;;;5.60;;
4508;SDS011;2267;48.816;9.230;2023-05-29T08:30:32;7.93;;;5.43;;
4508;SDS011;2267;48.816;9.230;2023-05-29T08:32:58;6.87;;;4.67;;
4508;SDS011;2267;48.816;9.230;2023-05-29T08:35:25;6.73;;;5.27;;
4508;SDS011;2267;48.816;9.230;2023-05-29T08:37:52;6.70;;;5.70;;
4508;SDS011;2267;48.816;9.230;2023-05-29T08:40:19;6.87;;;6.17;;
4508;SDS011;2267;48.816;9.230;2023-05-29T08:42:47;5.20;;;4.70;;
4508;SDS011;2267;48.816;9.230;2023-05-29T08:45:24;5.80;;;5.20;;
4508;SDS011;2267;48.816;9.230;2023-05-29T08:47:52;9.43;;;6.23;;
4508;SDS011;2267;48.816;9.230;2023-05-29T08:50:20;5.97;;;5.30;;
4508;SDS011;2267;48.816;9.230;2023-05-29T08:52:47;5.90;;;4.67;;
4508;SDS011;2267;48.816;9.230;2023-05-29T08:55:15;5.80;;;5.30;;
4508;SDS011;2267;48.816;9.230;2023-05-29T08:57:42;6.90;;;4.83;;
4508;SDS011;2267;48.816;9.230;2023-05-29T09:00:11;6.57;;;5.63;;
4508;SDS011;2267;48.816;9.230;2023-05-29T09:02:39;6.30;;;5.70;;
4508;SDS011;2267;48.816;9.230;2023-05-29T09:05:07;8.13;;;5.67;;
4508;SDS011;2267;48.816;9.230;2023-05-29T09:07:35;5.90;;;5.30;;
4508;SDS011;2267;48.816;9.230;2023-05-29T09:10:08;6.90;;;6.20;;
4508;SDS011;2267;48.816;9.230;2023-05-29T09:12:35;5.53;;;5.03;;
4508;SDS011;2267;48.816;9.230;2023-05-29T09:15:03;5.57;;;5.00;;
4508;SDS011;2267;48.816;9.230;2023-05-29T09:17:54;5.53;;;4.90;;
4508;SDS011;2267;48.816;9.230;2023-05-29T09:20:26;6.33;;;5.03;;
4508;SDS011;2267;48.816;9.230;2023-05-29T09:22:54;5.77;;;5.17;;
4508;SDS011;2267;48.816;9.230;2023-05-29T09:25:22;5.43;;;4.80;;
4508;SDS011;2267;48.816;9.230;2023-05-29T09:27:52;5.20;;;4.70;;
4508;SDS011;2267;48.816;9.230;2023-05-29T09:30:39;5.90;;;4.90;;
4508;SDS011;2267;48.816;9.230;2023-05-29T09:33:11;6.67;;;5.90;;
4508;SDS011;2267;48.816;9.230;2023-05-29T09:35:46;6.37;;;5.00;;
4508;SDS011;2267;48.816;9.230;2023-05-29T09:38:15;7.97;;;6.23;;
4508;SDS011;2267;48.816;9.230;2023-05-29T09:41:03;7.00;;;5.60;;
4508;SDS011;2267;48.816;9.230;2023-05-29T09:43:31;6.20;;;5.60;;
4508;SDS011;2267;48.816;9.230;2023-05-29T09:45:59;5.73;;;5.20;;
4508;SDS011;2267;48.816;9.230;2023-05-29T09:48:29;6.47;;;5.20;;
4508;SDS011;2267;48.816;9.230;2023-05-29T09:50:57;6.63;;;5.77;;
4508;SDS011;2267;48.816;9.230;2023-05-29T09:53:25;5.90;;;5.30;;
4508;SDS011;2267;48.816;9.230;2023-05-29T09:55:55;7.40;;;5.30;;
4508;SDS011;2267;48.816;9.230;2023-05-29T09:58:23;6.00;;;4.63;;
4508;SDS011;2267;48.816;9.230;2023-05-29T10:00:52;8.23;;;5.77;;
4508;SDS011;2267;48.816;9.230;2023-05-29T10:03:19;6.20;;;5.63;;
4508;SDS011;2267;48.816;9.230;2023-05-29T10:05:51;6.23;;;5.03;;
4508;SDS011;2267;48.816;9.230;2023-05-29T10:08:21;5.20;;;4.70;;
4508;SDS011;2267;48.816;9.230;2023-05-29T10:10:54;6.17;;;5.13;;
4508;SDS011;2267;48.816;9.230;2023-05-29T10:13:27;7.40;;;4.53;;
4508;SDS011;2267;48.816;9.230;2023-05-29T10:15:57;7.63;;;5.20;;
4508;SDS011;2267;48.816;9.230;2023-05-29T10:18:27;12.43;;;4.87;;
4508;SDS011;2267;48.816;9.230;2023-05-29T10:21:01;7.47;;;4.20;;
4508;SDS011;2267;48.816;9.230;2023-05-29T10:23:28;5.93;;;4.83;;
4508;SDS011;2267;48.816;9.230;2023-05-29T10:25:58;5.93;;;5.10;;
4508;SDS011;2267;48.816;9.230;2023-05-29T10:28:32;5.23;;;4.73;;
4508;SDS011;2267;48.816;9.230;2023-05-29T10:31:05;7.73;;;4.93;;
4508;SDS011;2267;48.816;9.230;2023-05-29T10:36:21;6.57;;;4.97;;
4508;SDS011;2267;48.816;9.230;2023-05-29T10:38:52;7.63;;;5.10;;
4508;SDS011;2267;48.816;9.230;2023-05-29T10:41:28;5.57;;;5.00;;
4508;SDS011;2267;48.816;9.230;2023-05-29T10:44:01;5.57;;;4.60;;
4508;SDS011;2267;48.816;9.230;2023-05-29T10:49:18;6.40;;;4.40;;
4508;SDS011;2267;48.816;9.230;2023-05-29T10:51:46;4.97;;;4.47;;
4508;SDS011;2267;48.816;9.230;2023-05-29T10:54:14;5.23;;;4.73;;
4508;SDS011;2267;48.816;9.230;2023-05-29T10:56:44;4.80;;;4.30;;
4508;SDS011;2267;48.816;9.230;2023-05-29T10:59:17;6.07;;;4.80;;
4508;SDS011;2267;48.816;9.230;2023-05-29T11:01:46;5.47;;;4.50;;
4508;SDS011;2267;48.816;9.230;2023-05-29T11:06:52;5.80;;;4.40;;
4508;SDS011;2267;48.816;9.230;2023-05-29T11:09:32;6.70;;;4.27;;
4508;SDS011;2267;48.816;9.230;2023-05-29T11:12:22;5.63;;;4.13;;
4508;SDS011;2267;48.816;9.230;2023-05-29T11:15:04;4.70;;;4.30;;
4508;SDS011;2267;48.816;9.230;2023-05-29T11:20:08;6.90;;;4.40;;
4508;SDS011;2267;48.816;9.230;2023-05-29T11:25:15;6.20;;;4.63;;
4508;SDS011;2267;48.816;9.230;2023-05-29T11:27:43;5.53;;;4.20;;
4508;SDS011;2267;48.816;9.230;2023-05-29T11:30:10;5.40;;;4.20;;
4508;SDS011;2267;48.816;9.230;2023-05-29T11:32:38;5.47;;;3.60;;
4508;SDS011;2267;48.816;9.230;2023-05-29T11:35:09;6.90;;;3.63;;
4508;SDS011;2267;48.816;9.230;2023-05-29T11:37:38;7.30;;;4.40;;
4508;SDS011;2267;48.816;9.230;2023-05-29T11:40:06;5.87;;;3.87;;
4508;SDS011;2267;48.816;9.230;2023-05-29T11:42:35;5.80;;;4.20;;
4508;SDS011;2267;48.816;9.230;2023-05-29T11:45:13;5.00;;;4.50;;
4508;SDS011;2267;48.816;9.230;2023-05-29T11:50:26;4.57;;;3.50;;
4508;SDS011;2267;48.816;9.230;2023-05-29T11:52:56;7.67;;;3.77;;
4508;SDS011;2267;48.816;9.230;2023-05-29T11:55:24;3.90;;;3.47;;
4508;SDS011;2267;48.816;9.230;2023-05-29T11:57:59;4.80;;;3.77;;
4508;SDS011;2267;48.816;9.230;2023-05-29T12:00:30;4.73;;;4.23;;
4508;SDS011;2267;48.816;9.230;2023-05-29T12:03:02;4.63;;;3.73;;
4508;SDS011;2267;48.816;9.230;2023-05-29T12:05:51;4.30;;;3.30;;
4508;SDS011;2267;48.816;9.230;2023-05-29T12:08:22;4.03;;;3.50;;
4508;SDS011;2267;48.816;9.230;2023-05-29T12:10:51;4.20;;;3.70;;
4508;SDS011;2267;48.816;9.230;2023-05-29T12:13:19;5.73;;;4.17;;
4508;SDS011;2267;48.816;9.230;2023-05-29T12:15:47;5.60;;;3.83;;
4508;SDS011;2267;48.816;9.230;2023-05-29T12:18:17;4.07;;;3.70;;
4508;SDS011;2267;48.816;9.230;2023-05-29T12:20:44;4.10;;;3.23;;
4508;SDS011;2267;48.816;9.230;2023-05-29T12:23:12;4.63;;;3.70;;
4508;SDS011;2267;48.816;9.230;2023-05-29T12:25:38;4.03;;;3.50;;
4508;SDS011;2267;48.816;9.230;2023-05-29T12:28:06;3.70;;;2.90;;
4508;SDS011;2267;48.816;9.230;2023-05-29T12:30:36;3.90;;;3.27;;
4508;SDS011;2267;48.816;9.230;2023-05-29T12:33:05;4.30;;;3.87;;
4508;SDS011;2267;48.816;9.230;2023-05-29T12:35:33;4.60;;;3.20;;
4508;SDS011;2267;48.816;9.230;2023-05-29T12:40:28;6.50;;;3.80;;
4508;SDS011;2267;48.816;9.230;2023-05-29T12:43:05;3.90;;;3.50;;
4508;SDS011;2267;48.816;9.230;2023-05-29T12:45:35;4.43;;;3.60;;
4508;SDS011;2267;48.816;9.230;2023-05-29T12:48:03;5.10;;;3.57;;
4508;SDS011;2267;48.816;9.230;2023-05-29T12:50:35;4.03;;;3.63;;
4508;SDS011;2267;48.816;9.230;2023-05-29T12:53:07;4.23;;;3.10;;
4508;SDS011;2267;48.816;9.230;2023-05-29T12:55:39;4.60;;;3.47;;
4508;SDS011;2267;48.816;9.230;2023-05-29T12:58:15;4.33;;;3.93;;
4508;SDS011;2267;48.816;9.230;2023-05-29T13:00:43;6.97;;;3.93;;
4508;SDS011;2267;48.816;9.230;2023-05-29T13:03:11;4.90;;;3.60;;
4508;SDS011;2267;48.816;9.230;2023-05-29T13:05:39;5.53;;;3.70;;
4508;SDS011;2267;48.816;9.230;2023-05-29T13:08:06;3.90;;;3.50;;
4508;SDS011;2267;48.816;9.230;2023-05-29T13:10:36;6.10;;;3.97;;
4508;SDS011;2267;48.816;9.230;2023-05-29T13:13:03;5.70;;;3.77;;
4508;SDS011;2267;48.816;9.230;2023-05-29T13:15:30;5.70;;;3.70;;
4508;SDS011;2267;48.816;9.230;2023-05-29T13:17:59;4.40;;;4.00;;
4508;SDS011;2267;48.816;9.230;2023-05-29T13:20:26;4.73;;;3.73;;
4508;SDS011;2267;48.816;9.230;2023-05-29T13:22:53;4.30;;;3.90;;
4508;SDS011;2267;48.816;9.230;2023-05-29T13:25:20;4.03;;;3.47;;
4508;SDS011;2267;48.816;9.230;2023-05-29T13:27:50;4.00;;;3.47;;
4508;SDS011;2267;48.816;9.230;2023-05-29T13:30:18;6.20;;;3.53;;
4508;SDS011;2267;48.816;9.230;2023-05-29T13:32:45;5.00;;;3.33;;
4508;SDS011;2267;48.816;9.230;2023-05-29T13:35:12;5.70;;;4.00;;
4508;SDS011;2267;48.816;9.230;2023-05-29T13:37:39;5.17;;;4.20;;
4508;SDS011;2267;48.816;9.230;2023-05-29T13:40:06;4.37;;;3.50;;
4508;SDS011;2267;48.816;9.230;2023-05-29T13:42:36;4.77;;;3.33;;
4508;SDS011;2267;48.816;9.230;2023-05-29T13:45:05;5.07;;;4.10;;
4508;SDS011;2267;48.816;9.230;2023-05-29T13:47:34;4.10;;;3.53;;
4508;SDS011;2267;48.816;9.230;2023-05-29T13:50:02;3.90;;;3.60;;
4508;SDS011;2267;48.816;9.230;2023-05-29T13:52:30;4.03;;;3.70;;
4508;SDS011;2267;48.816;9.230;2023-05-29T13:54:56;4.23;;;3.83;;
4508;SDS011;2267;48.816;9.230;2023-05-29T13:57:31;5.07;;;3.50;;
4508;SDS011;2267;48.816;9.230;2023-05-29T13:59:58;10.83;;;3.80;;
4508;SDS011;2267;48.816;9.230;2023-05-29T14:02:24;5.73;;;3.40;;
4508;SDS011;2267;48.816;9.230;2023-05-29T14:04:52;5.13;;;3.80;;
4508;SDS011;2267;48.816;9.230;2023-05-29T14:07:18;4.40;;;3.90;;
4508;SDS011;2267;48.816;9.230;2023-05-29T14:09:45;5.20;;;4.03;;
4508;SDS011;2267;48.816;9.230;2023-05-29T14:12:12;4.53;;;3.83;;
4508;SDS011;2267;48.816;9.230;2023-05-29T14:14:39;4.67;;;4.17;;
4508;SDS011;2267;48.816;9.230;2023-05-29T14:17:06;4.43;;;3.73;;
4508;SDS011;2267;48.816;9.230;2023-05-29T14:19:33;6.00;;;3.13;;
4508;SDS011;2267;48.816;9.230;2023-05-29T14:22:01;5.80;;;3.40;;
4508;SDS011;2267;48.816;9.230;2023-05-29T14:24:27;7.00;;;3.63;;
4508;SDS011;2267;48.816;9.230;2023-05-29T14:26:55;5.17;;;3.77;;
4508;SDS011;2267;48.816;9.230;2023-05-29T14:29:22;4.50;;;3.43;;
4508;SDS011;2267;48.816;9.230;2023-05-29T14:31:49;7.43;;;3.20;;
4508;SDS011;2267;48.816;9.230;2023-05-29T14:34:16;4.33;;;3.10;;
4508;SDS011;2267;48.816;9.230;2023-05-29T14:36:42;4.13;;;3.60;;
4508;SDS011;2267;48.816;9.230;2023-05-29T14:39:11;5.93;;;3.63;;
4508;SDS011;2267;48.816;9.230;2023-05-29T14:41:38;4.13;;;3.73;;
4508;SDS011;2267;48.816;9.230;2023-05-29T14:44:05;7.30;;;3.60;;
4508;SDS011;2267;48.816;9.230;2023-05-29T14:46:32;3.90;;;2.90;;
4508;SDS011;2267;48.816;9.230;2023-05-29T14:49:00;5.10;;;3.73;;
4508;SDS011;2267;48.816;9.230;2023-05-29T14:51:27;5.30;;;4.50;;
4508;SDS011;2267;48.816;9.230;2023-05-29T14:53:54;6.57;;;4.00;;
4508;SDS011;2267;48.816;9.230;2023-05-29T14:56:21;5.30;;;3.47;;
4508;SDS011;2267;48.816;9.230;2023-05-29T14:58:48;4.83;;;3.70;;
4508;SDS011;2267;48.816;9.230;2023-05-29T15:01:16;5.10;;;3.50;;
4508;SDS011;2267;48.816;9.230;2023-05-29T15:03:44;4.10;;;3.40;;
4508;SDS011;2267;48.816;9.230;2023-05-29T15:06:11;3.77;;;3.47;;
4508;SDS011;2267;48.816;9.230;2023-05-29T15:08:39;4.30;;;3.40;;
4508;SDS011;2267;48.816;9.230;2023-05-29T15:11:07;3.40;;;3.10;;
4508;SDS011;2267;48.816;9.230;2023-05-29T15:13:35;4.93;;;3.10;;
4508;SDS011;2267;48.816;9.230;2023-05-29T15:16:02;3.70;;;3.37;;
4508;SDS011;2267;48.816;9.230;2023-05-29T15:18:30;4.40;;;3.63;;
4508;SDS011;2267;48.816;9.230;2023-05-29T15:20:57;7.27;;;3.70;;
4508;SDS011;2267;48.816;9.230;2023-05-29T15:23:25;4.87;;;3.30;;
4508;SDS011;2267;48.816;9.230;2023-05-29T15:25:52;4.93;;;3.20;;
4508;SDS011;2267;48.816;9.230;2023-05-29T15:28:20;4.60;;;3.50;;
4508;SDS011;2267;48.816;9.230;2023-05-29T15:30:47;3.37;;;3.00;;
4508;SDS011;2267;48.816;9.230;2023-05-29T15:33:14;3.20;;;2.20;;
4508;SDS011;2267;48.816;9.230;2023-05-29T15:35:41;5.30;;;2.63;;
4508;SDS011;2267;48.816;9.230;2023-05-29T15:38:09;3.30;;;3.00;;
4508;SDS011;2267;48.816;9.230;2023-05-29T15:40:38;6.27;;;3.00;;
4508;SDS011;2267;48.816;9.230;2023-05-29T15:43:06;3.40;;;2.60;;
4508;SDS011;2267;48.816;9.230;2023-05-29T15:45:33;4.57;;;3.30;;
4508;SDS011;2267;48.816;9.230;2023-05-29T15:48:00;4.90;;;3.20;;
4508;SDS011;2267;48.816;9.230;2023-05-29T15:50:27;4.23;;;3.50;;